sensor_id;sensor_type;location;lat;lon;timestamp;pressure;altitude;pressure_sealevel;temperature;humidity
34235;BME280;20500;49.856;20.290;2023-01-25T10:33:53;100433.19;;;1.83;92.46
34235;BME280;20500;49.856;20.290;2023-01-25T10:37:03;100426.63;;;2.06;92.42
34235;BME280;20500;49.856;20.290;2023-01-25T10:40:20;100424.07;;;2.15;92.51
34235;BME280;20500;49.856;20.290;2023-01-25T10:43:28;100417.16;;;2.23;92.41
34235;BME280;20500;49.856;20.290;2023-01-25T10:46:34;100411.27;;;2.28;92.33
34235;BME280;20500;49.856;20.290;2023-01-25T10:49:45;100410.09;;;2.32;92.37
34235;BME280;20500;49.856;20.290;2023-01-25T10:52:58;100399.92;;;2.37;92.35
34235;BME280;20500;49.856;20.290;2023-01-25T10:56:20;100398.20;;;2.41;92.38
34235;BME280;20500;49.856;20.290;2023-01-25T10:59:28;100396.20;;;2.45;92.35
34235;BME280;20500;49.856;20.290;2023-01-25T11:02:42;100395.46;;;2.45;92.12
34235;BME280;20500;49.856;20.290;2023-01-25T11:05:53;100396.05;;;2.39;91.82
34235;BME280;20500;49.856;20.290;2023-01-25T11:09:00;100391.64;;;2.29;91.81
34235;BME280;20500;49.856;20.290;2023-01-25T11:12:16;100385.52;;;2.27;91.95
34235;BME280;20500;49.856;20.290;2023-01-25T11:15:26;100384.83;;;2.21;91.68
34235;BME280;20500;49.856;20.290;2023-01-25T11:18:33;100382.45;;;2.16;91.70
34235;BME280;20500;49.856;20.290;2023-01-25T11:21:52;100378.77;;;2.15;91.73
34235;BME280;20500;49.856;20.290;2023-01-25T11:24:58;100371.90;;;2.18;92.02
34235;BME280;20500;49.856;20.290;2023-01-25T11:28:29;100364.65;;;2.28;92.18
34235;BME280;20500;49.856;20.290;2023-01-25T11:31:36;100357.91;;;2.35;92.07
34235;BME280;20500;49.856;20.290;2023-01-25T11:34:45;100350.04;;;2.38;91.80
34235;BME280;20500;49.856;20.290;2023-01-25T11:38:07;100342.52;;;2.44;91.84
34235;BME280;20500;49.856;20.290;2023-01-25T11:41:22;100340.89;;;2.47;91.68
34235;BME280;20500;49.856;20.290;2023-01-25T11:48:21;100330.70;;;2.44;91.25
34235;BME280;20500;49.856;20.290;2023-01-25T11:51:35;100322.88;;;2.40;91.34
34235;BME280;20500;49.856;20.290;2023-01-25T11:54:50;100318.77;;;2.40;91.43
34235;BME280;20500;49.856;20.290;2023-01-25T11:58:09;100313.51;;;2.41;91.35
34235;BME280;20500;49.856;20.290;2023-01-25T12:01:22;100307.30;;;2.43;91.45
34235;BME280;20500;49.856;20.290;2023-01-25T12:08:17;100299.55;;;2.38;91.19
34235;BME280;20500;49.856;20.290;2023-01-25T12:11:35;100296.13;;;2.40;91.49
34235;BME280;20500;49.856;20.290;2023-01-25T12:15:01;100290.34;;;2.47;91.35
34235;BME280;20500;49.856;20.290;2023-01-25T12:18:32;100286.42;;;2.44;90.92
34235;BME280;20500;49.856;20.290;2023-01-25T12:21:56;100278.24;;;2.43;91.01
34235;BME280;20500;49.856;20.290;2023-01-25T12:25:18;100273.71;;;2.43;91.20
34235;BME280;20500;49.856;20.290;2023-01-25T12:28:30;100270.09;;;2.42;90.94
34235;BME280;20500;49.856;20.290;2023-01-25T12:31:44;100266.91;;;2.38;90.84
34235;BME280;20500;49.856;20.290;2023-01-25T12:35:02;100260.99;;;2.38;90.84
34235;BME280;20500;49.856;20.290;2023-01-25T12:38:14;100252.65;;;2.37;90.71
34235;BME280;20500;49.856;20.290;2023-01-25T12:41:28;100250.48;;;2.29;90.38
34235;BME280;20500;49.856;20.290;2023-01-25T12:44:38;100246.84;;;2.22;90.42
34235;BME280;20500;49.856;20.290;2023-01-25T12:47:48;100243.23;;;2.19;90.54
34235;BME280;20500;49.856;20.290;2023-01-25T12:50:58;100236.61;;;2.23;90.81
34235;BME280;20500;49.856;20.290;2023-01-25T12:54:09;100236.21;;;2.23;90.59
34235;BME280;20500;49.856;20.290;2023-01-25T12:57:25;100231.50;;;2.24;90.65
34235;BME280;20500;49.856;20.290;2023-01-25T13:00:36;100228.83;;;2.16;90.16
34235;BME280;20500;49.856;20.290;2023-01-25T13:03:59;100226.94;;;2.09;90.37
34235;BME280;20500;49.856;20.290;2023-01-25T13:07:15;100226.50;;;2.05;90.27
34235;BME280;20500;49.856;20.290;2023-01-25T13:10:25;100227.61;;;1.96;90.19
34235;BME280;20500;49.856;20.290;2023-01-25T13:13:34;100225.44;;;1.88;90.11
34235;BME280;20500;49.856;20.290;2023-01-25T13:16:40;100222.80;;;1.81;90.18
34235;BME280;20500;49.856;20.290;2023-01-25T13:19:47;100222.73;;;1.80;90.42
34235;BME280;20500;49.856;20.290;2023-01-25T13:22:58;100221.76;;;1.78;90.41
34235;BME280;20500;49.856;20.290;2023-01-25T13:26:44;100217.14;;;1.78;90.30
34235;BME280;20500;49.856;20.290;2023-01-25T13:30:00;100214.16;;;1.74;90.07
34235;BME280;20500;49.856;20.290;2023-01-25T13:33:07;100209.27;;;1.72;90.21
34235;BME280;20500;49.856;20.290;2023-01-25T13:36:44;100205.96;;;1.70;90.15
34235;BME280;20500;49.856;20.290;2023-01-25T13:39:52;100206.67;;;1.62;89.89
34235;BME280;20500;49.856;20.290;2023-01-25T13:43:04;100209.15;;;1.54;89.87
34235;BME280;20500;49.856;20.290;2023-01-25T13:46:13;100208.08;;;1.52;89.87
34235;BME280;20500;49.856;20.290;2023-01-25T13:49:25;100200.60;;;1.48;90.02
34235;BME280;20500;49.856;20.290;2023-01-25T13:52:33;100192.90;;;1.51;89.96
34235;BME280;20500;49.856;20.290;2023-01-25T13:55:41;100190.81;;;1.59;90.14
34235;BME280;20500;49.856;20.290;2023-01-25T13:58:47;100188.64;;;1.64;89.92
34235;BME280;20500;49.856;20.290;2023-01-25T14:01:52;100181.69;;;1.64;89.68
34235;BME280;20500;49.856;20.290;2023-01-25T14:04:58;100179.98;;;1.62;89.79
34235;BME280;20500;49.856;20.290;2023-01-25T14:08:11;100178.46;;;1.64;89.70
34235;BME280;20500;49.856;20.290;2023-01-25T14:11:20;100175.44;;;1.66;89.79
34235;BME280;20500;49.856;20.290;2023-01-25T14:14:29;100170.13;;;1.71;89.88
34235;BME280;20500;49.856;20.290;2023-01-25T14:17:36;100164.87;;;1.72;89.52
34235;BME280;20500;49.856;20.290;2023-01-25T14:20:41;100158.42;;;1.69;89.27
34235;BME280;20500;49.856;20.290;2023-01-25T14:23:48;100160.25;;;1.66;89.57
34235;BME280;20500;49.856;20.290;2023-01-25T14:26:56;100154.85;;;1.67;89.61
34235;BME280;20500;49.856;20.290;2023-01-25T14:30:04;100150.70;;;1.64;89.34
34235;BME280;20500;49.856;20.290;2023-01-25T14:33:19;100145.14;;;1.65;89.41
34235;BME280;20500;49.856;20.290;2023-01-25T14:36:30;100144.77;;;1.65;89.61
34235;BME280;20500;49.856;20.290;2023-01-25T14:39:38;100141.70;;;1.65;89.62
34235;BME280;20500;49.856;20.290;2023-01-25T14:42:44;100136.98;;;1.63;89.63
34235;BME280;20500;49.856;20.290;2023-01-25T14:45:49;100134.93;;;1.57;89.21
34235;BME280;20500;49.856;20.290;2023-01-25T14:49:13;100136.41;;;1.39;88.58
34235;BME280;20500;49.856;20.290;2023-01-25T14:52:24;100134.08;;;1.33;89.04
34235;BME280;20500;49.856;20.290;2023-01-25T14:55:32;100131.42;;;1.33;88.89
34235;BME280;20500;49.856;20.290;2023-01-25T14:58:38;100130.05;;;1.30;88.75
34235;BME280;20500;49.856;20.290;2023-01-25T15:01:52;100128.66;;;1.29;88.79
34235;BME280;20500;49.856;20.290;2023-01-25T15:05:01;100130.20;;;1.30;88.87
34235;BME280;20500;49.856;20.290;2023-01-25T15:08:28;100128.44;;;1.29;88.81
34235;BME280;20500;49.856;20.290;2023-01-25T15:11:35;100124.38;;;1.29;88.64
34235;BME280;20500;49.856;20.290;2023-01-25T15:14:50;100120.20;;;1.27;88.70
34235;BME280;20500;49.856;20.290;2023-01-25T15:17:57;100118.27;;;1.24;88.60
34235;BME280;20500;49.856;20.290;2023-01-25T15:21:04;100113.00;;;1.25;88.71
34235;BME280;20500;49.856;20.290;2023-01-25T15:24:12;100106.90;;;1.28;88.72
34235;BME280;20500;49.856;20.290;2023-01-25T15:27:22;100105.96;;;1.26;88.48
34235;BME280;20500;49.856;20.290;2023-01-25T15:30:28;100104.57;;;1.22;88.47
34235;BME280;20500;49.856;20.290;2023-01-25T15:33:33;100104.15;;;1.20;88.35
34235;BME280;20500;49.856;20.290;2023-01-25T15:36:39;100102.71;;;1.20;88.47
34235;BME280;20500;49.856;20.290;2023-01-25T15:39:45;100104.83;;;1.21;88.52
34235;BME280;20500;49.856;20.290;2023-01-25T15:42:51;100103.88;;;1.22;88.61
34235;BME280;20500;49.856;20.290;2023-01-25T15:46:00;100105.37;;;1.21;88.45
34235;BME280;20500;49.856;20.290;2023-01-25T15:49:07;100099.94;;;1.13;88.05
34235;BME280;20500;49.856;20.290;2023-01-25T15:52:13;100095.50;;;1.05;88.06
34235;BME280;20500;49.856;20.290;2023-01-25T15:55:20;100094.29;;;0.95;87.88
34235;BME280;20500;49.856;20.290;2023-01-25T15:58:28;100096.38;;;0.87;87.83
34235;BME280;20500;49.856;20.290;2023-01-25T16:01:35;100097.48;;;0.85;87.96
34235;BME280;20500;49.856;20.290;2023-01-25T16:04:40;100098.10;;;0.80;87.87
34235;BME280;20500;49.856;20.290;2023-01-25T16:07:47;100096.41;;;0.76;87.83
34235;BME280;20500;49.856;20.290;2023-01-25T16:10:53;100091.69;;;0.77;87.86
34235;BME280;20500;49.856;20.290;2023-01-25T16:13:57;100085.70;;;0.81;88.07
34235;BME280;20500;49.856;20.290;2023-01-25T16:17:05;100078.75;;;0.84;88.04
34235;BME280;20500;49.856;20.290;2023-01-25T16:20:18;100073.77;;;0.83;87.95
34235;BME280;20500;49.856;20.290;2023-01-25T16:23:24;100069.20;;;0.82;87.74
34235;BME280;20500;49.856;20.290;2023-01-25T16:26:31;100063.25;;;0.80;87.69
34235;BME280;20500;49.856;20.290;2023-01-25T16:29:37;100064.86;;;0.80;87.79
34235;BME280;20500;49.856;20.290;2023-01-25T16:32:43;100061.97;;;0.81;87.79
34235;BME280;20500;49.856;20.290;2023-01-25T16:36:05;100056.50;;;0.77;87.52
34235;BME280;20500;49.856;20.290;2023-01-25T16:39:17;100052.38;;;0.80;87.83
34235;BME280;20500;49.856;20.290;2023-01-25T16:42:24;100050.48;;;0.85;87.94
34235;BME280;20500;49.856;20.290;2023-01-25T16:45:28;100041.73;;;0.90;87.82
34235;BME280;20500;49.856;20.290;2023-01-25T16:48:35;100034.32;;;0.91;87.77
34235;BME280;20500;49.856;20.290;2023-01-25T16:51:40;100034.86;;;0.91;87.82
34235;BME280;20500;49.856;20.290;2023-01-25T16:54:46;100030.17;;;0.92;87.76
34235;BME280;20500;49.856;20.290;2023-01-25T16:57:50;100028.27;;;0.93;87.73
34235;BME280;20500;49.856;20.290;2023-01-25T17:00:57;100031.45;;;0.94;87.68
34235;BME280;20500;49.856;20.290;2023-01-25T17:04:03;100028.56;;;0.95;87.72
34235;BME280;20500;49.856;20.290;2023-01-25T17:07:07;100026.11;;;0.94;87.75
34235;BME280;20500;49.856;20.290;2023-01-25T17:10:16;100019.18;;;0.96;87.74
34235;BME280;20500;49.856;20.290;2023-01-25T17:13:23;100007.52;;;0.97;87.77
34235;BME280;20500;49.856;20.290;2023-01-25T17:16:30;100000.40;;;0.96;87.65
34235;BME280;20500;49.856;20.290;2023-01-25T17:19:37;99998.30;;;0.95;87.65
34235;BME280;20500;49.856;20.290;2023-01-25T17:22:41;99993.06;;;0.96;87.67
34235;BME280;20500;49.856;20.290;2023-01-25T17:25:53;99991.36;;;0.95;87.52
34235;BME280;20500;49.856;20.290;2023-01-25T17:29:00;99985.45;;;0.95;87.50
34235;BME280;20500;49.856;20.290;2023-01-25T17:32:07;99982.34;;;0.96;87.55
34235;BME280;20500;49.856;20.290;2023-01-25T17:35:13;99985.48;;;0.98;87.68
34235;BME280;20500;49.856;20.290;2023-01-25T17:38:17;99985.73;;;0.94;87.40
34235;BME280;20500;49.856;20.290;2023-01-25T17:41:24;99988.77;;;0.86;87.31
34235;BME280;20500;49.856;20.290;2023-01-25T17:44:30;99986.55;;;0.84;87.43
34235;BME280;20500;49.856;20.290;2023-01-25T17:47:36;99982.64;;;0.86;87.37
34235;BME280;20500;49.856;20.290;2023-01-25T17:50:41;99983.96;;;0.88;87.39
34235;BME280;20500;49.856;20.290;2023-01-25T17:53:47;99984.03;;;0.87;87.38
34235;BME280;20500;49.856;20.290;2023-01-25T17:56:54;99980.02;;;0.85;87.29
34235;BME280;20500;49.856;20.290;2023-01-25T18:00:00;99976.89;;;0.84;87.29
34235;BME280;20500;49.856;20.290;2023-01-25T18:03:07;99972.73;;;0.82;87.09
34235;BME280;20500;49.856;20.290;2023-01-25T18:06:16;99966.94;;;0.83;87.30
34235;BME280;20500;49.856;20.290;2023-01-25T18:09:22;99965.05;;;0.85;87.13
34235;BME280;20500;49.856;20.290;2023-01-25T18:12:29;99959.59;;;0.83;87.25
34235;BME280;20500;49.856;20.290;2023-01-25T18:15:35;99958.73;;;0.86;87.32
34235;BME280;20500;49.856;20.290;2023-01-25T18:18:40;99953.90;;;0.88;87.22
34235;BME280;20500;49.856;20.290;2023-01-25T18:21:47;99944.27;;;0.88;87.27
34235;BME280;20500;49.856;20.290;2023-01-25T18:24:51;99940.80;;;0.86;87.18
34235;BME280;20500;49.856;20.290;2023-01-25T18:27:58;99943.57;;;0.85;87.29
34235;BME280;20500;49.856;20.290;2023-01-25T18:31:03;99934.33;;;0.82;87.25
34235;BME280;20500;49.856;20.290;2023-01-25T18:34:09;99933.61;;;0.79;87.09
34235;BME280;20500;49.856;20.290;2023-01-25T18:37:16;99932.26;;;0.78;87.13
34235;BME280;20500;49.856;20.290;2023-01-25T18:40:24;99931.55;;;0.78;87.19
34235;BME280;20500;49.856;20.290;2023-01-25T18:43:30;99929.52;;;0.76;87.10
34235;BME280;20500;49.856;20.290;2023-01-25T18:46:37;99926.05;;;0.69;86.71
34235;BME280;20500;49.856;20.290;2023-01-25T18:49:44;99924.20;;;0.62;86.71
34235;BME280;20500;49.856;20.290;2023-01-25T18:52:51;99923.52;;;0.58;86.69
34235;BME280;20500;49.856;20.290;2023-01-25T18:56:03;99916.71;;;0.53;86.55
34235;BME280;20500;49.856;20.290;2023-01-25T18:59:10;99911.84;;;0.54;86.77
34235;BME280;20500;49.856;20.290;2023-01-25T19:02:15;99905.32;;;0.55;86.80
34235;BME280;20500;49.856;20.290;2023-01-25T19:05:21;99903.09;;;0.57;86.79
34235;BME280;20500;49.856;20.290;2023-01-25T19:08:28;99901.53;;;0.59;86.76
34235;BME280;20500;49.856;20.290;2023-01-25T19:11:36;99895.89;;;0.55;86.47
34235;BME280;20500;49.856;20.290;2023-01-25T19:14:40;99893.30;;;0.50;86.59
34235;BME280;20500;49.856;20.290;2023-01-25T19:17:47;99889.00;;;0.50;86.70
34235;BME280;20500;49.856;20.290;2023-01-25T19:20:53;99887.80;;;0.55;86.87
34235;BME280;20500;49.856;20.290;2023-01-25T19:23:59;99887.40;;;0.59;86.80
34235;BME280;20500;49.856;20.290;2023-01-25T19:27:05;99885.58;;;0.62;86.92
34235;BME280;20500;49.856;20.290;2023-01-25T19:30:11;99883.41;;;0.65;86.94
34235;BME280;20500;49.856;20.290;2023-01-25T19:33:17;99877.88;;;0.67;86.86
34235;BME280;20500;49.856;20.290;2023-01-25T19:36:23;99874.90;;;0.70;86.86
34235;BME280;20500;49.856;20.290;2023-01-25T19:39:30;99873.54;;;0.71;86.91
34235;BME280;20500;49.856;20.290;2023-01-25T19:42:36;99872.04;;;0.72;87.06
34235;BME280;20500;49.856;20.290;2023-01-25T19:45:41;99871.26;;;0.73;86.80
34235;BME280;20500;49.856;20.290;2023-01-25T19:48:48;99868.63;;;0.75;86.95
34235;BME280;20500;49.856;20.290;2023-01-25T19:51:55;99865.48;;;0.77;86.94
34235;BME280;20500;49.856;20.290;2023-01-25T19:55:01;99862.65;;;0.77;86.92
34235;BME280;20500;49.856;20.290;2023-01-25T19:58:06;99854.89;;;0.78;87.05
34235;BME280;20500;49.856;20.290;2023-01-25T20:01:14;99855.55;;;0.76;86.82
34235;BME280;20500;49.856;20.290;2023-01-25T20:04:22;99847.52;;;0.65;86.42
34235;BME280;20500;49.856;20.290;2023-01-25T20:07:28;99846.32;;;0.62;86.61
34235;BME280;20500;49.856;20.290;2023-01-25T20:10:36;99846.14;;;0.62;86.57
34235;BME280;20500;49.856;20.290;2023-01-25T20:13:40;99841.66;;;0.62;86.56
34235;BME280;20500;49.856;20.290;2023-01-25T20:16:47;99842.92;;;0.64;86.54
34235;BME280;20500;49.856;20.290;2023-01-25T20:19:56;99838.11;;;0.67;86.79
34235;BME280;20500;49.856;20.290;2023-01-25T20:23:00;99839.92;;;0.69;86.91
34235;BME280;20500;49.856;20.290;2023-01-25T20:26:09;99840.86;;;0.71;86.79
34235;BME280;20500;49.856;20.290;2023-01-25T20:29:17;99834.71;;;0.70;86.57
34235;BME280;20500;49.856;20.290;2023-01-25T20:32:25;99826.48;;;0.62;86.33
34235;BME280;20500;49.856;20.290;2023-01-25T20:35:37;99825.14;;;0.58;86.29
34235;BME280;20500;49.856;20.290;2023-01-25T20:38:43;99826.06;;;0.57;86.27
34235;BME280;20500;49.856;20.290;2023-01-25T20:41:50;99831.48;;;0.54;86.27
34235;BME280;20500;49.856;20.290;2023-01-25T20:44:57;99829.95;;;0.44;85.83
34235;BME280;20500;49.856;20.290;2023-01-25T20:48:03;99827.90;;;0.32;85.81
34235;BME280;20500;49.856;20.290;2023-01-25T20:51:11;99825.25;;;0.26;85.79
34235;BME280;20500;49.856;20.290;2023-01-25T20:54:18;99824.34;;;0.26;86.06
34235;BME280;20500;49.856;20.290;2023-01-25T20:57:25;99817.83;;;0.30;86.24
34235;BME280;20500;49.856;20.290;2023-01-25T21:00:31;99815.13;;;0.33;86.20
34235;BME280;20500;49.856;20.290;2023-01-25T21:03:35;99813.77;;;0.35;86.18
34235;BME280;20500;49.856;20.290;2023-01-25T21:06:42;99810.92;;;0.35;85.94
34235;BME280;20500;49.856;20.290;2023-01-25T21:09:48;99813.48;;;0.25;85.74
34235;BME280;20500;49.856;20.290;2023-01-25T21:12:52;99802.59;;;0.20;85.85
34235;BME280;20500;49.856;20.290;2023-01-25T21:16:00;99799.92;;;0.06;85.59
34235;BME280;20500;49.856;20.290;2023-01-25T21:19:07;99802.69;;;-0.01;85.75
34235;BME280;20500;49.856;20.290;2023-01-25T21:22:11;99806.65;;;-0.05;85.80
34235;BME280;20500;49.856;20.290;2023-01-25T21:25:18;99801.75;;;-0.03;86.00
34235;BME280;20500;49.856;20.290;2023-01-25T21:28:24;99799.05;;;0.00;85.86
34235;BME280;20500;49.856;20.290;2023-01-25T21:31:32;99802.02;;;0.01;85.89
34235;BME280;20500;49.856;20.290;2023-01-25T21:34:39;99803.75;;;-0.04;85.66
34235;BME280;20500;49.856;20.290;2023-01-25T21:37:46;99800.16;;;-0.12;85.66
34235;BME280;20500;49.856;20.290;2023-01-25T21:41:00;99798.26;;;-0.21;85.55
34235;BME280;20500;49.856;20.290;2023-01-25T21:44:07;99792.66;;;-0.23;85.74
34235;BME280;20500;49.856;20.290;2023-01-25T21:47:31;99790.61;;;-0.16;85.90
34235;BME280;20500;49.856;20.290;2023-01-25T21:50:38;99793.86;;;-0.08;86.05
34235;BME280;20500;49.856;20.290;2023-01-25T21:54:02;99790.60;;;-0.02;85.88
34235;BME280;20500;49.856;20.290;2023-01-25T21:57:07;99787.72;;;-0.02;85.60
34235;BME280;20500;49.856;20.290;2023-01-25T22:00:17;99788.55;;;-0.06;85.67
34235;BME280;20500;49.856;20.290;2023-01-25T22:03:24;99781.48;;;-0.10;85.63
34235;BME280;20500;49.856;20.290;2023-01-25T22:06:28;99773.95;;;-0.18;85.34
34235;BME280;20500;49.856;20.290;2023-01-25T22:09:35;99766.11;;;-0.26;85.43
34235;BME280;20500;49.856;20.290;2023-01-25T22:12:39;99761.21;;;-0.25;85.80
34235;BME280;20500;49.856;20.290;2023-01-25T22:15:46;99756.85;;;-0.18;85.94
34235;BME280;20500;49.856;20.290;2023-01-25T22:18:50;99753.09;;;-0.12;85.95
34235;BME280;20500;49.856;20.290;2023-01-25T22:21:56;99747.75;;;-0.07;86.09
34235;BME280;20500;49.856;20.290;2023-01-25T22:25:03;99743.94;;;-0.09;85.65
34235;BME280;20500;49.856;20.290;2023-01-25T22:28:14;99732.22;;;-0.18;85.40
34235;BME280;20500;49.856;20.290;2023-01-25T22:31:22;99729.11;;;-0.22;85.43
34235;BME280;20500;49.856;20.290;2023-01-25T22:34:28;99726.48;;;-0.29;85.34
34235;BME280;20500;49.856;20.290;2023-01-25T22:37:34;99724.33;;;-0.37;85.35
34235;BME280;20500;49.856;20.290;2023-01-25T22:40:41;99722.88;;;-0.42;85.26
34235;BME280;20500;49.856;20.290;2023-01-25T22:43:46;99721.09;;;-0.45;85.35
34235;BME280;20500;49.856;20.290;2023-01-25T22:46:52;99718.80;;;-0.45;85.55
34235;BME280;20500;49.856;20.290;2023-01-25T22:49:56;99716.08;;;-0.44;85.46
34235;BME280;20500;49.856;20.290;2023-01-25T22:53:03;99718.83;;;-0.43;85.52
34235;BME280;20500;49.856;20.290;2023-01-25T22:56:08;99716.63;;;-0.42;85.43
34235;BME280;20500;49.856;20.290;2023-01-25T22:59:15;99709.54;;;-0.40;85.58
34235;BME280;20500;49.856;20.290;2023-01-25T23:02:22;99710.04;;;-0.36;85.50
34235;BME280;20500;49.856;20.290;2023-01-25T23:05:29;99707.45;;;-0.30;85.66
34235;BME280;20500;49.856;20.290;2023-01-25T23:08:37;99704.02;;;-0.21;85.73
34235;BME280;20500;49.856;20.290;2023-01-25T23:11:43;99698.08;;;-0.14;85.66
34235;BME280;20500;49.856;20.290;2023-01-25T23:14:49;99691.94;;;-0.08;85.80
34235;BME280;20500;49.856;20.290;2023-01-25T23:17:58;99691.21;;;-0.02;85.78
34235;BME280;20500;49.856;20.290;2023-01-25T23:21:23;99687.34;;;-0.00;85.65
34235;BME280;20500;49.856;20.290;2023-01-25T23:24:31;99681.45;;;0.03;85.71
34235;BME280;20500;49.856;20.290;2023-01-25T23:27:35;99673.62;;;0.06;85.71
34235;BME280;20500;49.856;20.290;2023-01-25T23:30:42;99671.32;;;0.08;85.67
34235;BME280;20500;49.856;20.290;2023-01-25T23:33:49;99671.48;;;0.08;85.52
34235;BME280;20500;49.856;20.290;2023-01-25T23:36:55;99670.67;;;0.09;85.54
34235;BME280;20500;49.856;20.290;2023-01-25T23:40:00;99674.44;;;0.12;85.68
34235;BME280;20500;49.856;20.290;2023-01-25T23:43:06;99678.49;;;0.13;85.49
34235;BME280;20500;49.856;20.290;2023-01-25T23:46:11;99677.25;;;0.10;85.34
34235;BME280;20500;49.856;20.290;2023-01-25T23:49:19;99669.39;;;0.02;84.98
34235;BME280;20500;49.856;20.290;2023-01-25T23:52:25;99661.48;;;-0.01;85.05
34235;BME280;20500;49.856;20.290;2023-01-25T23:55:32;99656.39;;;0.04;85.28
34235;BME280;20500;49.856;20.290;2023-01-25T23:58:37;99651.23;;;0.06;85.15
